Kamuela, Hawaii
Current Conditions -  °F | °C
As of 6:56 PM on Wednesday 17 Dec 2014 (Local Time) from PHSF Reporting Station
Clear Clear  
Wind Chill: 53°   Ceiling: Unl
Heat Index: 53°   Visibility: 9mi
Dew Point: 47°   Wind: 1mph
Humidity: 80%   Direction: 360°N
Pressure: 30.4"   Gusts: NA
Location:  19.97°N, 155.78°W
Report Text: PHSF 180456Z AUTO 36001KT 9SM CLR 12/08 A3040 RMK AO2 SLP213 T01150081 $
Loading
Personal Weather Stations






























Interactive Weather Map New forecast layout! Learn more

10-Day Weather Forecast

Advertisements
Track Severe Weather on mobile